createdAt,value
2022-09-14T00:01:26.176Z,99.90
2022-09-14T00:03:55.343Z,99.90
2022-09-14T00:06:22.128Z,99.90
2022-09-14T00:08:56.373Z,99.90
2022-09-14T00:11:24.953Z,99.90
2022-09-14T00:13:52.581Z,99.90
2022-09-14T00:16:27.101Z,99.90
2022-09-14T00:19:05.610Z,99.90
2022-09-14T00:21:37.720Z,99.90
2022-09-14T00:24:07.071Z,99.90
2022-09-14T00:26:33.931Z,99.90
2022-09-14T00:29:04.789Z,99.90
2022-09-14T00:31:33.603Z,99.90
2022-09-14T00:34:01.183Z,99.90
2022-09-14T00:36:29.583Z,99.90
2022-09-14T00:38:57.094Z,99.90
2022-09-14T00:41:31.767Z,99.90
2022-09-14T00:44:02.711Z,99.90
2022-09-14T00:46:43.694Z,99.90
2022-09-14T00:49:17.747Z,99.90
2022-09-14T00:52:10.200Z,99.90
2022-09-14T00:54:49.772Z,99.90
2022-09-14T00:57:17.675Z,99.90
2022-09-14T00:59:46.139Z,99.90
2022-09-14T01:02:16.901Z,99.90
2022-09-14T01:04:44.254Z,99.90
2022-09-14T01:07:47.877Z,99.90
2022-09-14T01:10:27.039Z,99.90
2022-09-14T01:13:15.209Z,99.90
2022-09-14T01:16:07.798Z,99.90
2022-09-14T01:19:00.231Z,99.90
2022-09-14T01:21:33.765Z,99.90
2022-09-14T01:24:26.942Z,99.90
2022-09-14T01:27:10.062Z,99.90
2022-09-14T01:29:57.759Z,99.90
2022-09-14T01:32:29.571Z,99.90
2022-09-14T01:35:16.245Z,99.90
2022-09-14T01:38:07.562Z,99.90
2022-09-14T01:40:43.507Z,99.90
2022-09-14T01:43:18.065Z,99.90
2022-09-14T01:45:55.266Z,99.90
2022-09-14T01:48:28.168Z,99.90
2022-09-14T01:50:58.331Z,99.90
2022-09-14T01:53:37.691Z,99.90
2022-09-14T01:56:11.904Z,99.90
2022-09-14T01:58:45.359Z,99.90
2022-09-14T02:01:35.050Z,99.90
2022-09-14T02:04:06.359Z,99.90
2022-09-14T02:06:40.158Z,99.90
2022-09-14T02:09:10.546Z,99.90
2022-09-14T02:11:38.009Z,99.90
2022-09-14T02:14:05.820Z,99.90
2022-09-14T02:16:32.876Z,99.90
2022-09-14T02:19:01.541Z,99.90
2022-09-14T02:21:31.348Z,99.90
2022-09-14T02:24:00.130Z,99.90
2022-09-14T02:26:27.905Z,99.90
2022-09-14T02:28:56.072Z,99.90
2022-09-14T02:31:29.838Z,99.90
2022-09-14T02:34:30.304Z,99.90
2022-09-14T02:37:03.130Z,99.90
2022-09-14T02:39:36.642Z,99.90
2022-09-14T02:42:11.908Z,99.90
2022-09-14T02:44:57.075Z,99.90
2022-09-14T02:47:42.947Z,99.90
2022-09-14T02:50:27.542Z,99.90
2022-09-14T02:53:16.724Z,99.90
2022-09-14T02:55:49.898Z,99.90
2022-09-14T02:58:16.566Z,99.90
2022-09-14T03:00:46.033Z,99.90
2022-09-14T03:03:15.043Z,99.90
2022-09-14T03:05:41.868Z,99.90
2022-09-14T03:08:10.546Z,99.90
2022-09-14T03:10:37.982Z,99.90
2022-09-14T03:13:04.642Z,99.90
2022-09-14T03:15:31.667Z,99.90
2022-09-14T03:17:58.506Z,99.90
2022-09-14T03:20:27.929Z,99.90
2022-09-14T03:22:54.667Z,99.90
2022-09-14T03:25:23.017Z,99.90
2022-09-14T03:27:50.924Z,99.90
2022-09-14T03:30:18.873Z,99.90
2022-09-14T03:32:49.303Z,99.90
2022-09-14T03:35:19.098Z,99.90
2022-09-14T03:37:46.970Z,99.90
2022-09-14T03:40:21.651Z,99.90
2022-09-14T03:42:51.107Z,1.00
2022-09-14T03:45:19.509Z,1.00
2022-09-14T03:47:50.824Z,1.00
2022-09-14T03:50:23.813Z,1.00
2022-09-14T03:52:51.022Z,1.00
2022-09-14T03:55:19.682Z,1.00
2022-09-14T03:57:48.750Z,1.00
2022-09-14T04:00:19.182Z,1.00
2022-09-14T04:02:46.303Z,1.00
2022-09-14T04:05:13.077Z,1.00
2022-09-14T04:07:39.938Z,1.00
2022-09-14T04:10:07.360Z,1.00
2022-09-14T04:12:38.526Z,1.00
2022-09-14T04:15:08.978Z,1.00
2022-09-14T04:17:35.973Z,1.00
2022-09-14T04:20:03.350Z,1.00
2022-09-14T04:22:29.928Z,1.00
2022-09-14T04:24:56.603Z,1.00
2022-09-14T04:27:23.409Z,1.00
2022-09-14T04:29:50.676Z,1.00
2022-09-14T04:32:17.648Z,1.00
2022-09-14T04:34:44.293Z,1.00
2022-09-14T04:37:10.927Z,1.00
2022-09-14T04:39:37.763Z,1.00
2022-09-14T04:42:04.626Z,1.00
2022-09-14T04:44:31.248Z,1.00
2022-09-14T04:46:57.925Z,1.00
2022-09-14T04:49:24.657Z,1.00
2022-09-14T04:51:51.430Z,1.00
2022-09-14T04:54:18.803Z,1.00
2022-09-14T04:56:46.058Z,1.00
2022-09-14T04:59:13.440Z,1.00
2022-09-14T05:01:42.131Z,1.00
2022-09-14T05:04:10.018Z,1.00
2022-09-14T05:06:39.385Z,1.00
2022-09-14T05:09:10.805Z,1.00
2022-09-14T05:11:37.616Z,1.00
2022-09-14T05:14:04.785Z,1.00
2022-09-14T05:16:34.659Z,1.00
2022-09-14T05:19:04.332Z,1.00
2022-09-14T05:21:33.184Z,1.00
2022-09-14T05:24:02.244Z,1.00
2022-09-14T05:26:31.169Z,1.00
2022-09-14T05:28:59.839Z,1.00
2022-09-14T05:31:27.765Z,1.00
2022-09-14T05:33:54.761Z,1.00
2022-09-14T05:36:21.493Z,1.00
2022-09-14T05:38:48.196Z,1.00
2022-09-14T05:41:15.860Z,1.00
2022-09-14T05:43:43.380Z,1.00
2022-09-14T05:46:15.650Z,1.00
2022-09-14T05:48:42.984Z,1.00
2022-09-14T05:51:16.260Z,1.00
2022-09-14T05:53:47.270Z,1.00
2022-09-14T05:56:14.336Z,1.00
2022-09-14T05:58:41.878Z,1.00
2022-09-14T06:01:16.092Z,1.00
2022-09-14T06:03:43.842Z,1.00
2022-09-14T06:06:13.506Z,1.00
2022-09-14T06:08:40.922Z,1.00
2022-09-14T06:11:13.570Z,1.00
2022-09-14T06:13:40.674Z,1.00
2022-09-14T06:16:10.998Z,1.00
2022-09-14T06:18:39.196Z,1.00
2022-09-14T06:21:07.158Z,1.00
2022-09-14T06:23:33.879Z,1.00
2022-09-14T06:26:02.534Z,1.00
2022-09-14T06:28:30.120Z,1.00
2022-09-14T06:30:57.063Z,1.00
2022-09-14T06:33:24.153Z,1.00
2022-09-14T06:35:56.810Z,1.00
2022-09-14T06:38:23.538Z,1.00
2022-09-14T06:40:57.978Z,1.00
2022-09-14T06:43:25.976Z,1.00
2022-09-14T06:46:01.216Z,1.00
2022-09-14T06:48:29.863Z,1.00
2022-09-14T06:50:56.772Z,1.00
2022-09-14T06:53:23.998Z,1.00
2022-09-14T06:55:51.182Z,1.00
2022-09-14T06:58:18.068Z,1.00
2022-09-14T07:00:44.793Z,1.00
2022-09-14T07:03:11.511Z,1.00
2022-09-14T07:05:38.228Z,1.00
2022-09-14T07:08:07.928Z,1.00
2022-09-14T07:10:36.841Z,99.90
2022-09-14T07:13:03.698Z,99.90
2022-09-14T07:15:30.362Z,99.90
2022-09-14T07:17:58.079Z,99.90
2022-09-14T07:20:24.703Z,99.90
2022-09-14T07:22:51.338Z,99.90
2022-09-14T07:25:17.963Z,99.90
2022-09-14T07:27:44.664Z,99.90
2022-09-14T07:30:11.460Z,99.90
2022-09-14T07:32:38.123Z,99.90
2022-09-14T07:35:05.291Z,99.90
2022-09-14T07:37:32.030Z,99.90
2022-09-14T07:40:01.417Z,99.90
2022-09-14T07:42:28.222Z,99.90
2022-09-14T07:44:54.852Z,99.90
2022-09-14T07:47:21.555Z,99.90
2022-09-14T07:49:48.159Z,99.90
2022-09-14T07:52:14.790Z,99.90
2022-09-14T07:54:41.843Z,99.90
2022-09-14T07:57:08.665Z,99.90
2022-09-14T07:59:36.889Z,99.90
2022-09-14T08:02:07.444Z,99.90
2022-09-14T08:04:36.003Z,99.90
2022-09-14T08:07:03.492Z,99.90
2022-09-14T08:09:30.298Z,98.40
2022-09-14T08:11:57.288Z,80.60
2022-09-14T08:14:24.789Z,77.50
2022-09-14T08:16:52.267Z,81.10
2022-09-14T08:19:20.738Z,91.10
2022-09-14T08:21:48.081Z,77.50
2022-09-14T08:24:17.848Z,74.00
2022-09-14T08:26:45.030Z,47.80
2022-09-14T08:29:16.002Z,40.30
2022-09-14T08:31:44.248Z,31.00
2022-09-14T08:34:11.410Z,56.00
2022-09-14T08:36:40.066Z,39.30
2022-09-14T08:39:11.423Z,33.70
2022-09-14T08:41:44.587Z,22.70
2022-09-14T08:44:17.010Z,10.70
2022-09-14T08:47:07.018Z,4.60
2022-09-14T08:49:57.499Z,15.30
2022-09-14T08:52:38.483Z,24.00
2022-09-14T08:55:53.743Z,15.00
2022-09-14T08:58:44.113Z,20.60
2022-09-14T09:01:35.927Z,18.50
2022-09-14T09:04:32.851Z,16.90
2022-09-14T09:07:12.989Z,22.80
2022-09-14T09:09:48.688Z,21.20
2022-09-14T09:12:19.199Z,24.10
2022-09-14T09:14:57.034Z,16.60
2022-09-14T09:17:39.408Z,11.80
2022-09-14T09:20:14.246Z,22.70
2022-09-14T09:22:56.339Z,11.20
2022-09-14T09:25:28.522Z,18.90
2022-09-14T09:28:02.010Z,14.00
2022-09-14T09:30:29.847Z,1.00
2022-09-14T09:32:57.233Z,1.00
2022-09-14T09:35:39.250Z,1.00
2022-09-14T09:38:29.484Z,1.00
2022-09-14T09:41:05.280Z,4.40
2022-09-14T09:43:48.785Z,5.10
2022-09-14T09:46:17.720Z,8.10
2022-09-14T09:48:46.728Z,11.40
2022-09-14T09:51:24.647Z,5.80
2022-09-14T09:53:53.208Z,11.20
2022-09-14T09:56:28.827Z,11.70
2022-09-14T09:58:55.612Z,11.40
2022-09-14T10:01:31.337Z,10.00
2022-09-14T10:04:16.741Z,12.80
2022-09-14T10:06:46.036Z,15.00
2022-09-14T10:09:19.002Z,18.30
2022-09-14T10:12:16.678Z,27.50
2022-09-14T10:14:43.441Z,14.70
2022-09-14T10:17:23.605Z,10.70
2022-09-14T10:19:53.727Z,16.00
2022-09-14T10:22:34.988Z,24.10
2022-09-14T10:25:22.111Z,14.00
2022-09-14T10:27:56.081Z,2.50
2022-09-14T10:30:24.823Z,1.00
2022-09-14T10:33:02.107Z,3.70
2022-09-14T10:35:53.951Z,1.00
2022-09-14T10:38:30.955Z,1.00
2022-09-14T10:41:16.947Z,2.70
2022-09-14T10:44:19.623Z,1.00
2022-09-14T10:47:05.117Z,1.00
2022-09-14T10:49:51.864Z,1.00
2022-09-14T10:52:37.070Z,1.00
2022-09-14T10:55:10.014Z,1.00
2022-09-14T10:57:50.202Z,1.00
2022-09-14T11:00:20.169Z,1.00
2022-09-14T11:02:55.787Z,1.00
2022-09-14T11:05:36.176Z,1.00
2022-09-14T11:08:24.042Z,1.00
2022-09-14T11:11:12.404Z,1.00
2022-09-14T11:14:12.914Z,1.00
2022-09-14T11:17:27.426Z,1.00
2022-09-14T11:19:54.077Z,1.00
2022-09-14T11:22:26.752Z,1.00
2022-09-14T11:25:22.359Z,1.00
2022-09-14T11:28:00.783Z,1.00
2022-09-14T11:30:40.894Z,1.00
2022-09-14T11:33:18.896Z,1.00
2022-09-14T11:35:58.643Z,1.00
2022-09-14T11:38:29.293Z,1.00
2022-09-14T11:41:08.180Z,1.00
2022-09-14T11:43:50.291Z,1.00
2022-09-14T11:46:26.422Z,1.00
2022-09-14T11:49:14.973Z,1.00
2022-09-14T11:51:50.157Z,1.00
2022-09-14T11:54:24.294Z,1.00
2022-09-14T11:56:55.774Z,1.00
2022-09-14T11:59:40.510Z,1.00
2022-09-14T12:02:25.712Z,1.00
2022-09-14T12:05:07.452Z,1.00
2022-09-14T12:07:39.873Z,1.00
2022-09-14T12:10:15.617Z,1.00
2022-09-14T12:12:44.656Z,1.00
2022-09-14T12:15:24.944Z,1.00
2022-09-14T12:18:06.951Z,1.00
2022-09-14T12:20:52.854Z,1.00
2022-09-14T12:23:37.074Z,1.00
2022-09-14T12:26:06.759Z,1.00
2022-09-14T12:28:36.780Z,1.00
2022-09-14T12:31:03.466Z,1.00
2022-09-14T12:33:33.436Z,1.00
2022-09-14T12:36:06.376Z,1.00
2022-09-14T12:38:43.051Z,1.00
2022-09-14T12:41:15.709Z,1.00
2022-09-14T12:43:42.335Z,1.00
2022-09-14T12:46:38.512Z,1.00
2022-09-14T12:49:25.245Z,1.00
2022-09-14T12:51:52.619Z,1.00
2022-09-14T12:54:42.880Z,1.00
2022-09-14T12:57:15.307Z,1.00
2022-09-14T12:59:56.096Z,1.00
2022-09-14T13:02:54.679Z,1.00
2022-09-14T13:05:24.678Z,1.00
2022-09-14T13:07:52.043Z,1.00
2022-09-14T13:10:46.579Z,1.00
2022-09-14T13:13:17.930Z,1.00
2022-09-14T13:15:55.812Z,1.00
2022-09-14T13:18:22.416Z,1.00
2022-09-14T13:21:11.960Z,1.00
2022-09-14T13:23:42.012Z,1.00
2022-09-14T13:26:16.261Z,1.00
2022-09-14T13:28:47.312Z,1.00
2022-09-14T13:31:18.802Z,1.00
2022-09-14T13:33:51.311Z,1.00
2022-09-14T13:36:25.388Z,1.00
2022-09-14T13:38:52.376Z,1.00
2022-09-14T13:41:22.839Z,1.00
2022-09-14T13:43:54.095Z,1.00
2022-09-14T13:46:22.993Z,1.00
2022-09-14T13:48:50.664Z,1.00
2022-09-14T13:51:26.606Z,1.00
2022-09-14T13:53:58.815Z,1.00
2022-09-14T13:56:31.387Z,1.00
2022-09-14T13:59:07.149Z,1.00
2022-09-14T14:01:40.970Z,1.00
2022-09-14T14:04:33.525Z,1.00
2022-09-14T14:07:05.127Z,1.00
2022-09-14T14:09:44.704Z,1.00
2022-09-14T14:12:20.178Z,1.00
2022-09-14T14:15:03.523Z,1.00
2022-09-14T14:17:30.336Z,1.00
2022-09-14T14:19:59.640Z,1.00
2022-09-14T14:22:35.479Z,1.00
2022-09-14T14:25:18.965Z,1.00
2022-09-14T14:27:47.732Z,1.00
2022-09-14T14:30:20.660Z,1.00
2022-09-14T14:32:51.613Z,1.00
2022-09-14T14:35:22.685Z,1.00
2022-09-14T14:37:50.736Z,1.00
2022-09-14T14:40:18.828Z,1.00
2022-09-14T14:42:46.408Z,1.00
2022-09-14T14:45:19.174Z,1.00
2022-09-14T14:47:52.543Z,1.00
2022-09-14T14:50:25.062Z,1.00
2022-09-14T14:52:52.008Z,1.00
2022-09-14T14:55:21.151Z,1.00
2022-09-14T14:57:48.844Z,1.00
2022-09-14T15:00:24.092Z,1.00
2022-09-14T15:02:51.501Z,1.00
2022-09-14T15:05:18.766Z,1.00
2022-09-14T15:07:45.658Z,1.00
2022-09-14T15:10:16.479Z,1.00
2022-09-14T15:12:43.391Z,1.00
2022-09-14T15:15:18.374Z,1.00
2022-09-14T15:17:45.065Z,1.00
2022-09-14T15:20:13.042Z,1.00
2022-09-14T15:22:42.364Z,1.00
2022-09-14T15:25:10.213Z,1.00
2022-09-14T15:27:36.858Z,1.00
2022-09-14T15:30:05.914Z,1.00
2022-09-14T15:32:32.780Z,1.00
2022-09-14T15:34:59.483Z,1.00
2022-09-14T15:37:26.277Z,1.00
2022-09-14T15:39:52.949Z,1.00
2022-09-14T15:42:19.886Z,1.00
2022-09-14T15:44:46.943Z,1.00
2022-09-14T15:47:14.668Z,1.00
2022-09-14T15:49:42.475Z,1.00
2022-09-14T15:52:10.971Z,1.00
2022-09-14T15:54:38.670Z,1.00
2022-09-14T15:57:07.821Z,1.00
2022-09-14T15:59:34.846Z,1.00
2022-09-14T16:02:01.594Z,1.00
2022-09-14T16:04:28.662Z,1.00
2022-09-14T16:06:55.306Z,1.00
2022-09-14T16:09:22.585Z,1.00
2022-09-14T16:11:49.698Z,1.00
2022-09-14T16:14:16.625Z,1.00
2022-09-14T16:16:43.346Z,1.00
2022-09-14T16:19:14.113Z,1.00
2022-09-14T16:21:42.220Z,1.00
2022-09-14T16:24:18.079Z,1.00
2022-09-14T16:26:45.560Z,1.00
2022-09-14T16:29:14.663Z,1.00
2022-09-14T16:31:43.093Z,1.00
2022-09-14T16:34:21.992Z,1.00
2022-09-14T16:36:49.149Z,1.00
2022-09-14T16:39:25.069Z,1.00
2022-09-14T16:41:53.932Z,1.00
2022-09-14T16:44:24.207Z,1.00
2022-09-14T16:46:52.193Z,1.00
2022-09-14T16:49:22.428Z,1.00
2022-09-14T16:51:53.255Z,1.00
2022-09-14T16:54:22.899Z,1.00
2022-09-14T16:56:50.579Z,1.00
2022-09-14T16:59:17.821Z,1.00
2022-09-14T17:01:48.680Z,2.50
2022-09-14T17:04:21.540Z,10.00
2022-09-14T17:06:50.019Z,13.70
2022-09-14T17:09:20.758Z,18.80
2022-09-14T17:11:48.549Z,23.20
2022-09-14T17:14:20.440Z,32.60
2022-09-14T17:16:47.792Z,38.40
2022-09-14T17:19:15.267Z,46.70
2022-09-14T17:21:43.800Z,52.60
2022-09-14T17:24:11.550Z,61.70
2022-09-14T17:26:43.209Z,68.80
2022-09-14T17:29:13.288Z,82.50
2022-09-14T17:31:48.897Z,92.50
2022-09-14T17:34:19.990Z,96.30
2022-09-14T17:36:52.252Z,99.20
2022-09-14T17:39:25.827Z,99.90
2022-09-14T17:41:54.309Z,99.90
2022-09-14T17:44:24.223Z,99.90
2022-09-14T17:46:54.126Z,99.90
2022-09-14T17:49:23.314Z,99.90
2022-09-14T17:51:52.917Z,99.90
2022-09-14T17:54:21.892Z,99.90
2022-09-14T17:56:50.297Z,99.90
2022-09-14T17:59:26.707Z,99.90
2022-09-14T18:02:00.285Z,99.90
2022-09-14T18:04:27.378Z,99.90
2022-09-14T18:06:53.991Z,99.90
2022-09-14T18:09:23.963Z,99.90
2022-09-14T18:11:51.511Z,99.90
2022-09-14T18:14:18.871Z,99.90
2022-09-14T18:16:45.763Z,99.90
2022-09-14T18:19:13.423Z,99.90
2022-09-14T18:21:40.394Z,99.90
2022-09-14T18:24:07.586Z,99.90
2022-09-14T18:26:34.315Z,99.90
2022-09-14T18:29:01.274Z,99.90
2022-09-14T18:31:28.132Z,99.90
2022-09-14T18:33:59.082Z,99.90
2022-09-14T18:36:29.053Z,99.90
2022-09-14T18:38:56.952Z,99.90
2022-09-14T18:41:23.621Z,99.90
2022-09-14T18:43:52.105Z,99.90
2022-09-14T18:46:21.646Z,99.90
2022-09-14T18:48:54.455Z,99.90
2022-09-14T18:51:21.508Z,99.90
2022-09-14T18:53:48.883Z,99.90
2022-09-14T18:56:17.549Z,99.90
2022-09-14T18:58:46.566Z,99.90
2022-09-14T19:01:13.974Z,99.90
2022-09-14T19:03:42.350Z,99.90
2022-09-14T19:06:12.102Z,99.90
2022-09-14T19:08:38.788Z,99.90
2022-09-14T19:11:07.099Z,99.90
2022-09-14T19:13:34.237Z,99.90
2022-09-14T19:16:09.558Z,99.90
2022-09-14T19:18:36.633Z,99.90
2022-09-14T19:21:07.040Z,99.90
2022-09-14T19:23:34.468Z,99.90
2022-09-14T19:26:09.114Z,99.90
2022-09-14T19:28:37.524Z,99.90
2022-09-14T19:31:09.331Z,1.00
2022-09-14T19:33:36.449Z,1.00
2022-09-14T19:36:09.234Z,1.00
2022-09-14T19:38:36.768Z,1.00
2022-09-14T19:41:04.772Z,1.00
2022-09-14T19:43:32.912Z,1.00
2022-09-14T19:46:07.975Z,1.00
2022-09-14T19:48:35.497Z,1.00
2022-09-14T19:51:05.185Z,1.00
2022-09-14T19:53:33.734Z,1.00
2022-09-14T19:56:03.661Z,1.00
2022-09-14T19:58:30.473Z,1.00
2022-09-14T20:00:57.735Z,1.00
2022-09-14T20:03:25.431Z,1.00
2022-09-14T20:06:01.038Z,1.00
2022-09-14T20:08:29.042Z,1.00
2022-09-14T20:10:55.980Z,1.00
2022-09-14T20:13:22.868Z,1.00
2022-09-14T20:15:49.920Z,1.00
2022-09-14T20:18:16.632Z,1.00
2022-09-14T20:20:43.326Z,1.00
2022-09-14T20:23:09.915Z,1.00
2022-09-14T20:25:36.579Z,1.00
2022-09-14T20:28:03.256Z,1.00
2022-09-14T20:30:29.915Z,1.00
2022-09-14T20:32:56.548Z,1.00
2022-09-14T20:35:23.367Z,1.00
2022-09-14T20:37:50.094Z,1.00
2022-09-14T20:40:16.906Z,1.00
2022-09-14T20:42:43.625Z,1.00
2022-09-14T20:45:10.771Z,1.00
2022-09-14T20:47:37.454Z,1.00
2022-09-14T20:50:04.831Z,1.00
2022-09-14T20:52:31.803Z,1.00
2022-09-14T20:54:58.432Z,1.00
2022-09-14T20:57:25.104Z,1.00
2022-09-14T20:59:51.779Z,1.00
2022-09-14T21:02:22.980Z,1.00
2022-09-14T21:05:06.284Z,1.00
2022-09-14T21:07:36.769Z,1.00
2022-09-14T21:10:11.833Z,1.00
2022-09-14T21:12:48.748Z,1.00
2022-09-14T21:15:35.414Z,1.00
2022-09-14T21:18:02.229Z,1.00
2022-09-14T21:20:28.878Z,1.00
2022-09-14T21:22:58.323Z,1.00
2022-09-14T21:25:29.937Z,1.00
2022-09-14T21:27:56.815Z,1.00
2022-09-14T21:30:24.078Z,1.00
2022-09-14T21:32:50.977Z,1.00
2022-09-14T21:35:18.909Z,1.00
2022-09-14T21:37:48.066Z,1.00
2022-09-14T21:40:18.212Z,1.00
2022-09-14T21:42:45.369Z,1.00
2022-09-14T21:45:12.704Z,1.00
2022-09-14T21:47:39.448Z,1.00
2022-09-14T21:50:06.872Z,1.00
2022-09-14T21:52:33.523Z,1.00
2022-09-14T21:55:00.134Z,1.00
2022-09-14T21:57:26.864Z,1.00
2022-09-14T21:59:53.570Z,1.00
2022-09-14T22:02:21.814Z,1.00
2022-09-14T22:04:48.645Z,1.00
2022-09-14T22:07:15.260Z,1.00
2022-09-14T22:09:42.341Z,1.00
2022-09-14T22:12:09.035Z,1.00
2022-09-14T22:14:35.718Z,1.00
2022-09-14T22:17:02.329Z,1.00
2022-09-14T22:19:31.529Z,1.00
2022-09-14T22:21:58.521Z,1.00
2022-09-14T22:24:38.564Z,1.00
2022-09-14T22:27:14.331Z,1.00
2022-09-14T22:29:41.043Z,1.00
2022-09-14T22:32:11.765Z,1.00
2022-09-14T22:34:41.364Z,1.00
2022-09-14T22:37:08.384Z,1.00
2022-09-14T22:39:35.046Z,1.00
2022-09-14T22:42:02.734Z,1.00
2022-09-14T22:44:29.367Z,1.00
2022-09-14T22:46:55.998Z,1.00
2022-09-14T22:49:22.775Z,1.00
2022-09-14T22:51:49.783Z,1.00
2022-09-14T22:54:16.522Z,1.00
2022-09-14T22:56:43.147Z,1.00
2022-09-14T22:59:10.765Z,1.00
2022-09-14T23:01:40.083Z,1.00
2022-09-14T23:04:09.696Z,1.00
2022-09-14T23:06:42.030Z,1.00
2022-09-14T23:09:11.245Z,1.00
2022-09-14T23:11:38.055Z,1.00
2022-09-14T23:14:05.136Z,1.00
2022-09-14T23:16:31.915Z,1.30
2022-09-14T23:19:02.064Z,8.30
2022-09-14T23:21:30.929Z,19.20
2022-09-14T23:24:00.272Z,37.90
2022-09-14T23:26:27.571Z,46.00
2022-09-14T23:29:03.306Z,58.50
2022-09-14T23:31:30.969Z,84.00
2022-09-14T23:33:59.429Z,77.30
2022-09-14T23:36:26.988Z,69.40
2022-09-14T23:38:54.286Z,56.10
2022-09-14T23:41:23.027Z,56.20
2022-09-14T23:43:50.108Z,41.50
2022-09-14T23:46:17.791Z,37.60
2022-09-14T23:48:44.954Z,40.50
2022-09-14T23:51:12.746Z,42.60
2022-09-14T23:53:40.466Z,46.70
2022-09-14T23:56:07.810Z,47.80
2022-09-14T23:58:35.192Z,45.00
